sensor_id;sensor_type;location;lat;lon;timestamp;temperature;humidity
12438;DHT22;6283;51.330;12.374;2023-02-15T00:00:16;4.00;1.00
12438;DHT22;6283;51.330;12.374;2023-02-15T00:02:42;4.00;1.00
12438;DHT22;6283;51.330;12.374;2023-02-15T00:05:08;4.10;1.00
12438;DHT22;6283;51.330;12.374;2023-02-15T00:07:34;4.00;1.00
12438;DHT22;6283;51.330;12.374;2023-02-15T00:10:00;3.90;1.00
12438;DHT22;6283;51.330;12.374;2023-02-15T00:12:25;3.90;1.00
12438;DHT22;6283;51.330;12.374;2023-02-15T00:14:51;4.00;1.00
12438;DHT22;6283;51.330;12.374;2023-02-15T00:17:16;4.00;1.00
12438;DHT22;6283;51.330;12.374;2023-02-15T00:19:42;3.90;1.00
12438;DHT22;6283;51.330;12.374;2023-02-15T00:22:08;3.80;1.00
12438;DHT22;6283;51.330;12.374;2023-02-15T00:24:34;3.80;1.00
12438;DHT22;6283;51.330;12.374;2023-02-15T00:27:00;3.90;1.00
12438;DHT22;6283;51.330;12.374;2023-02-15T00:29:26;3.90;1.00
12438;DHT22;6283;51.330;12.374;2023-02-15T00:31:52;4.00;1.00
12438;DHT22;6283;51.330;12.374;2023-02-15T00:34:19;4.00;1.00
12438;DHT22;6283;51.330;12.374;2023-02-15T00:36:45;3.90;1.00
12438;DHT22;6283;51.330;12.374;2023-02-15T00:39:11;3.90;1.00
12438;DHT22;6283;51.330;12.374;2023-02-15T00:41:37;4.00;1.00
12438;DHT22;6283;51.330;12.374;2023-02-15T00:44:03;3.90;1.00
12438;DHT22;6283;51.330;12.374;2023-02-15T00:46:29;3.90;1.00
12438;DHT22;6283;51.330;12.374;2023-02-15T00:48:55;3.80;1.00
12438;DHT22;6283;51.330;12.374;2023-02-15T00:51:21;3.90;1.00
12438;DHT22;6283;51.330;12.374;2023-02-15T00:53:47;3.80;1.00
12438;DHT22;6283;51.330;12.374;2023-02-15T00:56:12;3.90;1.00
12438;DHT22;6283;51.330;12.374;2023-02-15T00:58:38;3.70;1.00
12438;DHT22;6283;51.330;12.374;2023-02-15T01:01:06;3.70;1.00
12438;DHT22;6283;51.330;12.374;2023-02-15T01:03:33;3.60;1.00
12438;DHT22;6283;51.330;12.374;2023-02-15T01:05:59;3.60;1.00
12438;DHT22;6283;51.330;12.374;2023-02-15T01:08:25;3.50;1.00
12438;DHT22;6283;51.330;12.374;2023-02-15T01:10:51;3.60;1.00
12438;DHT22;6283;51.330;12.374;2023-02-15T01:13:17;3.40;1.00
12438;DHT22;6283;51.330;12.374;2023-02-15T01:15:43;3.60;1.00
12438;DHT22;6283;51.330;12.374;2023-02-15T01:18:10;3.70;1.00
12438;DHT22;6283;51.330;12.374;2023-02-15T01:20:38;3.80;1.00
12438;DHT22;6283;51.330;12.374;2023-02-15T01:23:05;3.50;1.00
12438;DHT22;6283;51.330;12.374;2023-02-15T01:25:33;3.60;1.00
12438;DHT22;6283;51.330;12.374;2023-02-15T01:27:58;3.80;1.00
12438;DHT22;6283;51.330;12.374;2023-02-15T01:30:24;3.60;1.00
12438;DHT22;6283;51.330;12.374;2023-02-15T01:32:50;3.50;1.00
12438;DHT22;6283;51.330;12.374;2023-02-15T01:35:15;3.70;1.00
12438;DHT22;6283;51.330;12.374;2023-02-15T01:37:41;3.60;1.00
12438;DHT22;6283;51.330;12.374;2023-02-15T01:40:09;3.60;1.00
12438;DHT22;6283;51.330;12.374;2023-02-15T01:42:37;3.60;1.00
12438;DHT22;6283;51.330;12.374;2023-02-15T01:45:05;3.60;1.00
12438;DHT22;6283;51.330;12.374;2023-02-15T01:48:04;3.50;1.00
12438;DHT22;6283;51.330;12.374;2023-02-15T01:50:34;3.50;1.00
12438;DHT22;6283;51.330;12.374;2023-02-15T01:55:33;3.60;1.00
12438;DHT22;6283;51.330;12.374;2023-02-15T01:57:59;3.30;1.00
12438;DHT22;6283;51.330;12.374;2023-02-15T02:00:25;3.60;1.00
12438;DHT22;6283;51.330;12.374;2023-02-15T02:02:53;3.50;1.00
12438;DHT22;6283;51.330;12.374;2023-02-15T02:05:20;3.50;1.00
12438;DHT22;6283;51.330;12.374;2023-02-15T02:07:46;3.50;1.00
12438;DHT22;6283;51.330;12.374;2023-02-15T02:10:17;3.50;1.00
12438;DHT22;6283;51.330;12.374;2023-02-15T02:12:45;3.50;1.00
12438;DHT22;6283;51.330;12.374;2023-02-15T02:15:12;3.40;1.00
12438;DHT22;6283;51.330;12.374;2023-02-15T02:18:21;3.40;1.00
12438;DHT22;6283;51.330;12.374;2023-02-15T02:24:00;3.40;1.00
12438;DHT22;6283;51.330;12.374;2023-02-15T02:35:22;3.20;1.00
12438;DHT22;6283;51.330;12.374;2023-02-15T02:40:53;3.10;1.00
12438;DHT22;6283;51.330;12.374;2023-02-15T02:46:10;3.30;1.00
12438;DHT22;6283;51.330;12.374;2023-02-15T02:48:39;3.30;1.00
12438;DHT22;6283;51.330;12.374;2023-02-15T02:51:04;3.20;1.00
12438;DHT22;6283;51.330;12.374;2023-02-15T02:53:31;3.00;1.00
12438;DHT22;6283;51.330;12.374;2023-02-15T02:56:52;3.10;1.00
12438;DHT22;6283;51.330;12.374;2023-02-15T02:59:08;3.30;1.00
12438;DHT22;6283;51.330;12.374;2023-02-15T03:01:50;3.30;1.00
12438;DHT22;6283;51.330;12.374;2023-02-15T03:04:43;3.20;1.00
12438;DHT22;6283;51.330;12.374;2023-02-15T03:07:14;3.00;1.00
12438;DHT22;6283;51.330;12.374;2023-02-15T03:09:51;2.80;1.00
12438;DHT22;6283;51.330;12.374;2023-02-15T03:12:20;2.90;1.00
12438;DHT22;6283;51.330;12.374;2023-02-15T03:14:49;2.80;1.00
12438;DHT22;6283;51.330;12.374;2023-02-15T03:17:20;2.90;1.00
12438;DHT22;6283;51.330;12.374;2023-02-15T03:19:48;2.90;1.00
12438;DHT22;6283;51.330;12.374;2023-02-15T03:27:24;2.80;1.00
12438;DHT22;6283;51.330;12.374;2023-02-15T03:29:54;3.10;1.00
12438;DHT22;6283;51.330;12.374;2023-02-15T03:32:21;2.80;1.00
12438;DHT22;6283;51.330;12.374;2023-02-15T03:34:48;3.00;1.00
12438;DHT22;6283;51.330;12.374;2023-02-15T03:37:22;2.90;1.00
12438;DHT22;6283;51.330;12.374;2023-02-15T03:39:59;2.60;1.00
12438;DHT22;6283;51.330;12.374;2023-02-15T03:42:48;2.80;1.00
12438;DHT22;6283;51.330;12.374;2023-02-15T03:45:22;2.70;1.00
12438;DHT22;6283;51.330;12.374;2023-02-15T03:47:50;2.80;1.00
12438;DHT22;6283;51.330;12.374;2023-02-15T03:50:18;2.80;1.00
12438;DHT22;6283;51.330;12.374;2023-02-15T03:53:07;2.60;1.00
12438;DHT22;6283;51.330;12.374;2023-02-15T03:55:35;3.00;1.00
12438;DHT22;6283;51.330;12.374;2023-02-15T03:58:01;2.60;1.00
12438;DHT22;6283;51.330;12.374;2023-02-15T04:00:59;2.70;1.00
12438;DHT22;6283;51.330;12.374;2023-02-15T04:06:20;2.70;1.00
12438;DHT22;6283;51.330;12.374;2023-02-15T04:08:46;2.70;1.00
12438;DHT22;6283;51.330;12.374;2023-02-15T04:11:30;2.70;1.00
12438;DHT22;6283;51.330;12.374;2023-02-15T04:13:56;2.80;1.00
12438;DHT22;6283;51.330;12.374;2023-02-15T04:16:23;2.70;1.00
12438;DHT22;6283;51.330;12.374;2023-02-15T04:18:49;2.70;1.00
12438;DHT22;6283;51.330;12.374;2023-02-15T04:21:33;2.60;1.00
12438;DHT22;6283;51.330;12.374;2023-02-15T04:24:17;2.60;1.00
12438;DHT22;6283;51.330;12.374;2023-02-15T04:27:02;2.60;1.00
12438;DHT22;6283;51.330;12.374;2023-02-15T04:29:28;2.80;1.00
12438;DHT22;6283;51.330;12.374;2023-02-15T04:31:56;2.70;1.00
12438;DHT22;6283;51.330;12.374;2023-02-15T04:34:22;2.60;1.00
12438;DHT22;6283;51.330;12.374;2023-02-15T04:36:48;2.60;1.00
12438;DHT22;6283;51.330;12.374;2023-02-15T04:39:16;2.60;1.00
12438;DHT22;6283;51.330;12.374;2023-02-15T04:41:42;2.50;1.00
12438;DHT22;6283;51.330;12.374;2023-02-15T04:44:07;2.70;1.00
12438;DHT22;6283;51.330;12.374;2023-02-15T04:46:33;2.70;1.00
12438;DHT22;6283;51.330;12.374;2023-02-15T04:48:59;2.60;1.00
12438;DHT22;6283;51.330;12.374;2023-02-15T04:51:24;2.70;1.00
12438;DHT22;6283;51.330;12.374;2023-02-15T04:53:50;2.60;1.00
12438;DHT22;6283;51.330;12.374;2023-02-15T04:56:18;2.50;1.00
12438;DHT22;6283;51.330;12.374;2023-02-15T04:58:44;2.50;1.00
12438;DHT22;6283;51.330;12.374;2023-02-15T05:01:10;2.60;1.00
12438;DHT22;6283;51.330;12.374;2023-02-15T05:03:36;2.60;1.00
12438;DHT22;6283;51.330;12.374;2023-02-15T05:06:03;2.60;1.00
12438;DHT22;6283;51.330;12.374;2023-02-15T05:08:28;2.80;1.00
12438;DHT22;6283;51.330;12.374;2023-02-15T05:10:54;2.60;1.00
12438;DHT22;6283;51.330;12.374;2023-02-15T05:13:20;2.60;1.00
12438;DHT22;6283;51.330;12.374;2023-02-15T05:15:49;2.60;1.00
12438;DHT22;6283;51.330;12.374;2023-02-15T05:18:18;2.80;1.00
12438;DHT22;6283;51.330;12.374;2023-02-15T05:20:44;2.50;1.00
12438;DHT22;6283;51.330;12.374;2023-02-15T05:23:10;2.80;1.00
12438;DHT22;6283;51.330;12.374;2023-02-15T05:25:36;2.60;1.00
12438;DHT22;6283;51.330;12.374;2023-02-15T05:28:20;2.50;1.00
12438;DHT22;6283;51.330;12.374;2023-02-15T05:30:51;2.60;1.00
12438;DHT22;6283;51.330;12.374;2023-02-15T05:33:24;2.60;1.00
12438;DHT22;6283;51.330;12.374;2023-02-15T05:35:49;2.60;1.00
12438;DHT22;6283;51.330;12.374;2023-02-15T05:38:16;2.50;1.00
12438;DHT22;6283;51.330;12.374;2023-02-15T05:40:41;2.50;1.00
12438;DHT22;6283;51.330;12.374;2023-02-15T05:43:07;2.60;1.00
12438;DHT22;6283;51.330;12.374;2023-02-15T05:45:33;2.40;1.00
12438;DHT22;6283;51.330;12.374;2023-02-15T05:47:59;2.50;1.00
12438;DHT22;6283;51.330;12.374;2023-02-15T05:50:25;2.50;1.00
12438;DHT22;6283;51.330;12.374;2023-02-15T05:52:51;2.60;1.00
12438;DHT22;6283;51.330;12.374;2023-02-15T05:55:16;2.50;1.00
12438;DHT22;6283;51.330;12.374;2023-02-15T05:57:42;2.40;1.00
12438;DHT22;6283;51.330;12.374;2023-02-15T06:00:08;2.50;1.00
12438;DHT22;6283;51.330;12.374;2023-02-15T06:02:35;2.40;1.00
12438;DHT22;6283;51.330;12.374;2023-02-15T06:05:01;2.50;1.00
12438;DHT22;6283;51.330;12.374;2023-02-15T06:07:27;2.30;1.00
12438;DHT22;6283;51.330;12.374;2023-02-15T06:09:53;2.20;1.00
12438;DHT22;6283;51.330;12.374;2023-02-15T06:12:18;2.30;1.00
12438;DHT22;6283;51.330;12.374;2023-02-15T06:14:44;2.40;1.00
12438;DHT22;6283;51.330;12.374;2023-02-15T06:17:09;2.30;1.00
12438;DHT22;6283;51.330;12.374;2023-02-15T06:19:35;2.50;1.00
12438;DHT22;6283;51.330;12.374;2023-02-15T06:22:00;2.70;1.00
12438;DHT22;6283;51.330;12.374;2023-02-15T06:24:26;2.60;1.00
12438;DHT22;6283;51.330;12.374;2023-02-15T06:26:52;2.50;1.00
12438;DHT22;6283;51.330;12.374;2023-02-15T06:29:17;2.50;1.00
12438;DHT22;6283;51.330;12.374;2023-02-15T06:31:43;2.40;1.00
12438;DHT22;6283;51.330;12.374;2023-02-15T06:34:08;2.40;1.00
12438;DHT22;6283;51.330;12.374;2023-02-15T06:36:34;2.40;1.00
12438;DHT22;6283;51.330;12.374;2023-02-15T06:39:00;2.30;1.00
12438;DHT22;6283;51.330;12.374;2023-02-15T06:41:28;2.30;1.00
12438;DHT22;6283;51.330;12.374;2023-02-15T06:43:53;2.30;1.00
12438;DHT22;6283;51.330;12.374;2023-02-15T06:46:19;2.30;1.00
12438;DHT22;6283;51.330;12.374;2023-02-15T06:48:44;2.30;1.00
12438;DHT22;6283;51.330;12.374;2023-02-15T06:51:10;2.40;1.00
12438;DHT22;6283;51.330;12.374;2023-02-15T06:53:35;2.30;1.00
12438;DHT22;6283;51.330;12.374;2023-02-15T06:56:06;2.40;1.00
12438;DHT22;6283;51.330;12.374;2023-02-15T06:58:40;2.40;1.00
12438;DHT22;6283;51.330;12.374;2023-02-15T07:01:07;2.20;1.00
12438;DHT22;6283;51.330;12.374;2023-02-15T07:03:34;2.30;1.00
12438;DHT22;6283;51.330;12.374;2023-02-15T07:06:01;2.40;1.00
12438;DHT22;6283;51.330;12.374;2023-02-15T07:08:27;2.40;1.00
12438;DHT22;6283;51.330;12.374;2023-02-15T07:10:54;2.40;1.00
12438;DHT22;6283;51.330;12.374;2023-02-15T07:13:20;2.50;1.00
12438;DHT22;6283;51.330;12.374;2023-02-15T07:15:47;2.40;1.00
12438;DHT22;6283;51.330;12.374;2023-02-15T07:18:13;2.50;1.00
12438;DHT22;6283;51.330;12.374;2023-02-15T07:20:39;2.60;1.00
12438;DHT22;6283;51.330;12.374;2023-02-15T07:23:07;2.60;1.00
12438;DHT22;6283;51.330;12.374;2023-02-15T07:25:34;2.50;1.00
12438;DHT22;6283;51.330;12.374;2023-02-15T07:28:01;2.60;1.00
12438;DHT22;6283;51.330;12.374;2023-02-15T07:30:28;2.80;1.00
12438;DHT22;6283;51.330;12.374;2023-02-15T07:32:59;2.70;1.00
12438;DHT22;6283;51.330;12.374;2023-02-15T07:35:47;2.90;1.00
12438;DHT22;6283;51.330;12.374;2023-02-15T07:38:14;2.80;1.00
12438;DHT22;6283;51.330;12.374;2023-02-15T07:40:39;2.90;1.00
12438;DHT22;6283;51.330;12.374;2023-02-15T07:43:05;2.80;1.00
12438;DHT22;6283;51.330;12.374;2023-02-15T07:45:30;3.00;1.00
12438;DHT22;6283;51.330;12.374;2023-02-15T07:47:56;2.80;1.00
12438;DHT22;6283;51.330;12.374;2023-02-15T07:50:22;2.90;1.00
12438;DHT22;6283;51.330;12.374;2023-02-15T07:52:47;2.80;1.00
12438;DHT22;6283;51.330;12.374;2023-02-15T07:55:13;2.80;1.00
12438;DHT22;6283;51.330;12.374;2023-02-15T07:57:44;2.90;1.00
12438;DHT22;6283;51.330;12.374;2023-02-15T08:00:11;2.80;1.00
12438;DHT22;6283;51.330;12.374;2023-02-15T08:02:38;2.90;1.00
12438;DHT22;6283;51.330;12.374;2023-02-15T08:05:05;2.90;1.00
12438;DHT22;6283;51.330;12.374;2023-02-15T08:07:30;2.90;1.00
12438;DHT22;6283;51.330;12.374;2023-02-15T08:09:56;3.30;1.00
12438;DHT22;6283;51.330;12.374;2023-02-15T08:12:21;3.00;1.00
12438;DHT22;6283;51.330;12.374;2023-02-15T08:14:47;3.10;1.00
12438;DHT22;6283;51.330;12.374;2023-02-15T08:17:13;3.10;1.00
12438;DHT22;6283;51.330;12.374;2023-02-15T08:19:38;3.30;1.00
12438;DHT22;6283;51.330;12.374;2023-02-15T08:22:06;3.30;1.00
12438;DHT22;6283;51.330;12.374;2023-02-15T08:24:34;3.40;1.00
12438;DHT22;6283;51.330;12.374;2023-02-15T08:27:03;3.10;1.00
12438;DHT22;6283;51.330;12.374;2023-02-15T08:29:30;3.50;1.00
12438;DHT22;6283;51.330;12.374;2023-02-15T08:32:01;3.20;1.00
12438;DHT22;6283;51.330;12.374;2023-02-15T08:34:30;3.50;1.00
12438;DHT22;6283;51.330;12.374;2023-02-15T08:36:56;3.60;1.00
12438;DHT22;6283;51.330;12.374;2023-02-15T08:39:22;3.40;1.00
12438;DHT22;6283;51.330;12.374;2023-02-15T08:41:48;3.40;1.00
12438;DHT22;6283;51.330;12.374;2023-02-15T08:44:19;3.60;1.00
12438;DHT22;6283;51.330;12.374;2023-02-15T08:46:46;3.70;1.00
12438;DHT22;6283;51.330;12.374;2023-02-15T08:49:18;3.90;1.00
12438;DHT22;6283;51.330;12.374;2023-02-15T08:51:44;3.90;1.00
12438;DHT22;6283;51.330;12.374;2023-02-15T08:54:14;4.00;1.00
12438;DHT22;6283;51.330;12.374;2023-02-15T08:56:41;4.10;1.00
12438;DHT22;6283;51.330;12.374;2023-02-15T08:59:18;4.40;1.00
12438;DHT22;6283;51.330;12.374;2023-02-15T09:01:45;4.20;1.00
12438;DHT22;6283;51.330;12.374;2023-02-15T09:04:11;4.20;1.00
12438;DHT22;6283;51.330;12.374;2023-02-15T09:06:39;4.50;1.00
12438;DHT22;6283;51.330;12.374;2023-02-15T09:09:06;4.60;1.00
12438;DHT22;6283;51.330;12.374;2023-02-15T09:11:41;4.60;1.00
12438;DHT22;6283;51.330;12.374;2023-02-15T09:14:18;4.60;1.00
12438;DHT22;6283;51.330;12.374;2023-02-15T09:16:47;4.80;1.00
12438;DHT22;6283;51.330;12.374;2023-02-15T09:19:15;4.90;1.00
12438;DHT22;6283;51.330;12.374;2023-02-15T09:21:41;5.00;1.00
12438;DHT22;6283;51.330;12.374;2023-02-15T09:24:09;5.20;1.00
12438;DHT22;6283;51.330;12.374;2023-02-15T09:26:38;5.10;1.00
12438;DHT22;6283;51.330;12.374;2023-02-15T09:29:06;5.40;1.00
12438;DHT22;6283;51.330;12.374;2023-02-15T09:31:34;5.30;1.00
12438;DHT22;6283;51.330;12.374;2023-02-15T09:34:02;5.20;1.00
12438;DHT22;6283;51.330;12.374;2023-02-15T09:36:34;5.40;1.00
12438;DHT22;6283;51.330;12.374;2023-02-15T09:55:53;6.30;1.00
12438;DHT22;6283;51.330;12.374;2023-02-15T10:03:48;6.30;1.00
12438;DHT22;6283;51.330;12.374;2023-02-15T10:09:42;6.60;1.00
12438;DHT22;6283;51.330;12.374;2023-02-15T10:12:32;6.70;1.00
12438;DHT22;6283;51.330;12.374;2023-02-15T10:39:26;7.30;1.00
12438;DHT22;6283;51.330;12.374;2023-02-15T11:00:51;7.90;1.00
12438;DHT22;6283;51.330;12.374;2023-02-15T11:06:09;8.40;1.00
12438;DHT22;6283;51.330;12.374;2023-02-15T11:08:43;8.50;1.00
12438;DHT22;6283;51.330;12.374;2023-02-15T11:11:15;8.50;1.00
12438;DHT22;6283;51.330;12.374;2023-02-15T11:13:48;8.50;1.00
12438;DHT22;6283;51.330;12.374;2023-02-15T11:16:37;8.50;1.00
12438;DHT22;6283;51.330;12.374;2023-02-15T11:19:12;8.60;1.00
12438;DHT22;6283;51.330;12.374;2023-02-15T11:21:53;8.90;1.00
12438;DHT22;6283;51.330;12.374;2023-02-15T11:24:20;8.80;1.00
12438;DHT22;6283;51.330;12.374;2023-02-15T11:29:33;8.90;1.00
12438;DHT22;6283;51.330;12.374;2023-02-15T11:40:39;9.30;1.00
12438;DHT22;6283;51.330;12.374;2023-02-15T11:45:42;9.50;1.00
12438;DHT22;6283;51.330;12.374;2023-02-15T11:48:12;9.60;1.00
12438;DHT22;6283;51.330;12.374;2023-02-15T11:50:38;9.80;1.00
12438;DHT22;6283;51.330;12.374;2023-02-15T11:53:14;10.10;1.00
12438;DHT22;6283;51.330;12.374;2023-02-15T11:55:43;10.30;1.00
12438;DHT22;6283;51.330;12.374;2023-02-15T12:09:42;10.90;1.00
12438;DHT22;6283;51.330;12.374;2023-02-15T12:12:28;11.00;1.00
12438;DHT22;6283;51.330;12.374;2023-02-15T12:14:59;11.10;1.00
12438;DHT22;6283;51.330;12.374;2023-02-15T12:17:27;11.20;1.00
12438;DHT22;6283;51.330;12.374;2023-02-15T12:19:57;11.70;1.00
12438;DHT22;6283;51.330;12.374;2023-02-15T12:22:28;11.80;1.00
12438;DHT22;6283;51.330;12.374;2023-02-15T12:24:57;11.90;1.00
12438;DHT22;6283;51.330;12.374;2023-02-15T12:27:27;12.30;1.00
12438;DHT22;6283;51.330;12.374;2023-02-15T12:30:04;12.60;1.00
12438;DHT22;6283;51.330;12.374;2023-02-15T12:32:46;13.10;1.00
12438;DHT22;6283;51.330;12.374;2023-02-15T12:35:28;13.30;1.00
12438;DHT22;6283;51.330;12.374;2023-02-15T12:38:05;13.60;1.00
12438;DHT22;6283;51.330;12.374;2023-02-15T12:40:32;13.70;1.00
12438;DHT22;6283;51.330;12.374;2023-02-15T12:42:59;13.70;1.00
12438;DHT22;6283;51.330;12.374;2023-02-15T12:45:33;14.10;1.00
12438;DHT22;6283;51.330;12.374;2023-02-15T12:48:18;14.20;1.00
12438;DHT22;6283;51.330;12.374;2023-02-15T12:50:49;14.20;1.00
12438;DHT22;6283;51.330;12.374;2023-02-15T12:53:22;14.00;1.00
12438;DHT22;6283;51.330;12.374;2023-02-15T12:58:27;14.50;1.00
12438;DHT22;6283;51.330;12.374;2023-02-15T13:03:33;14.70;1.00
12438;DHT22;6283;51.330;12.374;2023-02-15T13:06:01;14.60;1.00
12438;DHT22;6283;51.330;12.374;2023-02-15T13:08:30;14.50;1.00
12438;DHT22;6283;51.330;12.374;2023-02-15T13:11:03;14.40;1.00
12438;DHT22;6283;51.330;12.374;2023-02-15T13:13:36;14.50;1.00
12438;DHT22;6283;51.330;12.374;2023-02-15T13:16:11;14.50;1.00
12438;DHT22;6283;51.330;12.374;2023-02-15T13:18:41;14.80;1.00
12438;DHT22;6283;51.330;12.374;2023-02-15T13:21:20;14.90;1.00
12438;DHT22;6283;51.330;12.374;2023-02-15T13:23:52;14.90;1.00
12438;DHT22;6283;51.330;12.374;2023-02-15T13:26:21;14.90;1.00
12438;DHT22;6283;51.330;12.374;2023-02-15T13:28:51;15.00;1.00
12438;DHT22;6283;51.330;12.374;2023-02-15T13:31:19;15.20;1.00
12438;DHT22;6283;51.330;12.374;2023-02-15T13:33:53;15.40;1.00
12438;DHT22;6283;51.330;12.374;2023-02-15T13:38:59;15.80;1.00
12438;DHT22;6283;51.330;12.374;2023-02-15T13:41:33;15.80;1.00
12438;DHT22;6283;51.330;12.374;2023-02-15T13:52:23;16.20;1.00
12438;DHT22;6283;51.330;12.374;2023-02-15T14:00:12;16.30;1.00
12438;DHT22;6283;51.330;12.374;2023-02-15T14:03:18;16.50;1.00
12438;DHT22;6283;51.330;12.374;2023-02-15T14:08:45;16.70;1.00
12438;DHT22;6283;51.330;12.374;2023-02-15T14:11:26;16.80;1.00
12438;DHT22;6283;51.330;12.374;2023-02-15T14:19:25;17.10;1.00
12438;DHT22;6283;51.330;12.374;2023-02-15T14:22:22;17.20;1.00
12438;DHT22;6283;51.330;12.374;2023-02-15T14:25:20;17.30;1.00
12438;DHT22;6283;51.330;12.374;2023-02-15T14:28:14;17.60;1.00
12438;DHT22;6283;51.330;12.374;2023-02-15T14:30:46;17.90;1.00
12438;DHT22;6283;51.330;12.374;2023-02-15T14:33:36;18.20;1.00
12438;DHT22;6283;51.330;12.374;2023-02-15T14:36:05;18.30;1.00
12438;DHT22;6283;51.330;12.374;2023-02-15T14:44:21;18.40;1.00
12438;DHT22;6283;51.330;12.374;2023-02-15T14:49:27;18.90;1.00
12438;DHT22;6283;51.330;12.374;2023-02-15T14:51:58;19.00;1.00
12438;DHT22;6283;51.330;12.374;2023-02-15T15:05:32;19.30;1.00
12438;DHT22;6283;51.330;12.374;2023-02-15T15:08:01;19.30;1.00
12438;DHT22;6283;51.330;12.374;2023-02-15T15:16:46;19.10;1.00
12438;DHT22;6283;51.330;12.374;2023-02-15T15:18:48;19.20;1.00
12438;DHT22;6283;51.330;12.374;2023-02-15T15:27:44;19.40;1.00
12438;DHT22;6283;51.330;12.374;2023-02-15T15:49:15;19.50;1.00
12438;DHT22;6283;51.330;12.374;2023-02-15T15:51:42;19.50;1.00
12438;DHT22;6283;51.330;12.374;2023-02-15T15:54:18;19.40;1.00
12438;DHT22;6283;51.330;12.374;2023-02-15T15:56:47;19.30;1.00
12438;DHT22;6283;51.330;12.374;2023-02-15T15:59:24;19.00;1.00
12438;DHT22;6283;51.330;12.374;2023-02-15T16:01:50;18.50;1.00
12438;DHT22;6283;51.330;12.374;2023-02-15T16:04:30;18.00;1.00
12438;DHT22;6283;51.330;12.374;2023-02-15T16:09:59;16.90;1.00
12438;DHT22;6283;51.330;12.374;2023-02-15T16:12:27;16.20;1.00
12438;DHT22;6283;51.330;12.374;2023-02-15T16:14:54;15.80;1.00
12438;DHT22;6283;51.330;12.374;2023-02-15T16:17:24;15.50;1.00
12438;DHT22;6283;51.330;12.374;2023-02-15T16:19:53;15.20;1.00
12438;DHT22;6283;51.330;12.374;2023-02-15T16:22:24;14.80;1.00
12438;DHT22;6283;51.330;12.374;2023-02-15T16:27:42;13.90;1.00
12438;DHT22;6283;51.330;12.374;2023-02-15T16:30:31;13.70;1.00
12438;DHT22;6283;51.330;12.374;2023-02-15T16:33:07;13.50;1.00
12438;DHT22;6283;51.330;12.374;2023-02-15T16:35:34;13.30;1.00
12438;DHT22;6283;51.330;12.374;2023-02-15T16:38:01;13.20;1.00
12438;DHT22;6283;51.330;12.374;2023-02-15T16:43:14;12.80;1.00
12438;DHT22;6283;51.330;12.374;2023-02-15T16:45:41;12.50;1.00
12438;DHT22;6283;51.330;12.374;2023-02-15T16:48:12;12.20;1.00
12438;DHT22;6283;51.330;12.374;2023-02-15T16:50:40;12.10;1.00
12438;DHT22;6283;51.330;12.374;2023-02-15T16:53:18;11.90;1.00
12438;DHT22;6283;51.330;12.374;2023-02-15T16:55:50;11.80;1.00
12438;DHT22;6283;51.330;12.374;2023-02-15T16:58:17;11.60;1.00
12438;DHT22;6283;51.330;12.374;2023-02-15T17:00:45;11.30;1.00
12438;DHT22;6283;51.330;12.374;2023-02-15T17:05:40;11.40;1.00
12438;DHT22;6283;51.330;12.374;2023-02-15T17:08:15;11.10;1.00
12438;DHT22;6283;51.330;12.374;2023-02-15T17:10:45;11.20;1.00
12438;DHT22;6283;51.330;12.374;2023-02-15T17:13:16;11.40;1.00
12438;DHT22;6283;51.330;12.374;2023-02-15T17:16:25;11.30;1.00
12438;DHT22;6283;51.330;12.374;2023-02-15T17:18:52;10.90;1.00
12438;DHT22;6283;51.330;12.374;2023-02-15T17:21:20;11.00;1.00
12438;DHT22;6283;51.330;12.374;2023-02-15T17:23:51;10.80;1.00
12438;DHT22;6283;51.330;12.374;2023-02-15T17:26:24;10.60;1.00
12438;DHT22;6283;51.330;12.374;2023-02-15T17:28:55;10.50;1.00
12438;DHT22;6283;51.330;12.374;2023-02-15T17:31:30;10.50;1.00
12438;DHT22;6283;51.330;12.374;2023-02-15T17:33:57;10.40;1.00
12438;DHT22;6283;51.330;12.374;2023-02-15T17:36:29;10.10;1.00
12438;DHT22;6283;51.330;12.374;2023-02-15T17:41:24;10.20;1.00
12438;DHT22;6283;51.330;12.374;2023-02-15T17:43:50;9.90;1.00
12438;DHT22;6283;51.330;12.374;2023-02-15T17:46:16;9.90;1.00
12438;DHT22;6283;51.330;12.374;2023-02-15T17:48:46;10.30;1.00
12438;DHT22;6283;51.330;12.374;2023-02-15T17:51:13;10.00;1.00
12438;DHT22;6283;51.330;12.374;2023-02-15T17:53:40;9.90;1.00
12438;DHT22;6283;51.330;12.374;2023-02-15T17:56:26;10.10;1.00
12438;DHT22;6283;51.330;12.374;2023-02-15T17:58:52;10.20;1.00
12438;DHT22;6283;51.330;12.374;2023-02-15T18:01:19;9.80;1.00
12438;DHT22;6283;51.330;12.374;2023-02-15T18:04:04;9.80;1.00
12438;DHT22;6283;51.330;12.374;2023-02-15T18:06:49;9.70;1.00
12438;DHT22;6283;51.330;12.374;2023-02-15T18:09:33;9.50;1.00
12438;DHT22;6283;51.330;12.374;2023-02-15T18:14:45;9.40;1.00
12438;DHT22;6283;51.330;12.374;2023-02-15T18:17:12;9.20;1.00
12438;DHT22;6283;51.330;12.374;2023-02-15T18:19:40;9.10;1.00
12438;DHT22;6283;51.330;12.374;2023-02-15T18:22:15;9.10;1.00
12438;DHT22;6283;51.330;12.374;2023-02-15T18:24:41;8.90;1.00
12438;DHT22;6283;51.330;12.374;2023-02-15T18:27:09;8.90;1.00
12438;DHT22;6283;51.330;12.374;2023-02-15T18:29:35;9.00;1.00
12438;DHT22;6283;51.330;12.374;2023-02-15T18:32:01;8.90;1.00
12438;DHT22;6283;51.330;12.374;2023-02-15T18:34:33;8.70;1.00
12438;DHT22;6283;51.330;12.374;2023-02-15T18:37:01;8.80;1.00
12438;DHT22;6283;51.330;12.374;2023-02-15T18:39:37;8.50;1.00
12438;DHT22;6283;51.330;12.374;2023-02-15T18:45:00;8.40;1.00
12438;DHT22;6283;51.330;12.374;2023-02-15T18:47:27;8.40;1.00
12438;DHT22;6283;51.330;12.374;2023-02-15T18:49:53;8.70;1.00
12438;DHT22;6283;51.330;12.374;2023-02-15T18:52:23;8.30;1.00
12438;DHT22;6283;51.330;12.374;2023-02-15T18:54:52;8.40;1.00
12438;DHT22;6283;51.330;12.374;2023-02-15T18:57:18;8.50;1.00
12438;DHT22;6283;51.330;12.374;2023-02-15T18:59:44;8.30;1.00
12438;DHT22;6283;51.330;12.374;2023-02-15T19:02:17;8.40;1.00
12438;DHT22;6283;51.330;12.374;2023-02-15T19:04:44;8.30;1.00
12438;DHT22;6283;51.330;12.374;2023-02-15T19:07:30;8.30;1.00
12438;DHT22;6283;51.330;12.374;2023-02-15T19:09:58;8.60;1.00
12438;DHT22;6283;51.330;12.374;2023-02-15T19:12:27;8.50;1.00
12438;DHT22;6283;51.330;12.374;2023-02-15T19:14:52;8.40;1.00
12438;DHT22;6283;51.330;12.374;2023-02-15T19:17:21;8.20;1.00
12438;DHT22;6283;51.330;12.374;2023-02-15T19:19:48;8.40;1.00
12438;DHT22;6283;51.330;12.374;2023-02-15T19:22:34;8.20;1.00
12438;DHT22;6283;51.330;12.374;2023-02-15T19:25:02;8.40;1.00
12438;DHT22;6283;51.330;12.374;2023-02-15T19:27:34;8.30;1.00
12438;DHT22;6283;51.330;12.374;2023-02-15T19:30:02;8.50;1.00
12438;DHT22;6283;51.330;12.374;2023-02-15T19:32:29;8.40;1.00
12438;DHT22;6283;51.330;12.374;2023-02-15T19:34:56;8.10;1.00
12438;DHT22;6283;51.330;12.374;2023-02-15T19:37:37;8.30;1.00
12438;DHT22;6283;51.330;12.374;2023-02-15T19:40:05;8.20;1.00
12438;DHT22;6283;51.330;12.374;2023-02-15T19:42:31;8.40;1.00
12438;DHT22;6283;51.330;12.374;2023-02-15T19:44:59;8.10;1.00
12438;DHT22;6283;51.330;12.374;2023-02-15T19:47:26;8.20;1.00
12438;DHT22;6283;51.330;12.374;2023-02-15T19:49:52;7.90;1.00
12438;DHT22;6283;51.330;12.374;2023-02-15T19:52:20;7.90;1.00
12438;DHT22;6283;51.330;12.374;2023-02-15T19:54:51;8.00;1.00
12438;DHT22;6283;51.330;12.374;2023-02-15T19:57:18;8.00;1.00
12438;DHT22;6283;51.330;12.374;2023-02-15T19:59:44;8.00;1.00